sensor_id;sensor_type;location;lat;lon;timestamp;P1;durP1;ratioP1;P2;durP2;ratioP2
18290;SDS011;9271;48.590;8.866;2023-03-14T00:00:18;3.33;;;1.87;;
18290;SDS011;9271;48.590;8.866;2023-03-14T00:02:46;2.30;;;1.80;;
18290;SDS011;9271;48.590;8.866;2023-03-14T00:05:18;6.17;;;3.30;;
18290;SDS011;9271;48.590;8.866;2023-03-14T00:07:45;2.67;;;2.10;;
18290;SDS011;9271;48.590;8.866;2023-03-14T00:10:12;5.60;;;2.90;;
18290;SDS011;9271;48.590;8.866;2023-03-14T00:12:40;2.43;;;2.17;;
18290;SDS011;9271;48.590;8.866;2023-03-14T00:15:08;2.37;;;1.53;;
18290;SDS011;9271;48.590;8.866;2023-03-14T00:17:35;2.10;;;1.50;;
18290;SDS011;9271;48.590;8.866;2023-03-14T00:20:04;2.27;;;1.67;;
18290;SDS011;9271;48.590;8.866;2023-03-14T00:22:34;3.57;;;2.50;;
18290;SDS011;9271;48.590;8.866;2023-03-14T00:25:01;3.63;;;1.60;;
18290;SDS011;9271;48.590;8.866;2023-03-14T00:27:27;1.40;;;1.27;;
18290;SDS011;9271;48.590;8.866;2023-03-14T00:29:54;2.43;;;1.60;;
18290;SDS011;9271;48.590;8.866;2023-03-14T00:32:21;1.63;;;1.47;;
18290;SDS011;9271;48.590;8.866;2023-03-14T00:34:47;3.20;;;1.70;;
18290;SDS011;9271;48.590;8.866;2023-03-14T00:37:15;1.77;;;1.50;;
18290;SDS011;9271;48.590;8.866;2023-03-14T00:39:42;2.00;;;1.80;;
18290;SDS011;9271;48.590;8.866;2023-03-14T00:42:09;3.37;;;1.70;;
18290;SDS011;9271;48.590;8.866;2023-03-14T00:44:35;3.20;;;1.50;;
18290;SDS011;9271;48.590;8.866;2023-03-14T00:47:02;1.50;;;1.40;;
18290;SDS011;9271;48.590;8.866;2023-03-14T00:49:29;1.10;;;1.00;;
18290;SDS011;9271;48.590;8.866;2023-03-14T00:51:56;2.20;;;1.10;;
18290;SDS011;9271;48.590;8.866;2023-03-14T00:54:24;1.90;;;1.23;;
18290;SDS011;9271;48.590;8.866;2023-03-14T00:56:50;1.30;;;1.10;;
18290;SDS011;9271;48.590;8.866;2023-03-14T00:59:17;1.80;;;1.00;;
18290;SDS011;9271;48.590;8.866;2023-03-14T01:01:44;0.60;;;0.60;;
18290;SDS011;9271;48.590;8.866;2023-03-14T01:04:11;0.70;;;0.70;;
18290;SDS011;9271;48.590;8.866;2023-03-14T01:06:37;0.80;;;0.80;;
18290;SDS011;9271;48.590;8.866;2023-03-14T01:09:05;1.33;;;0.80;;
18290;SDS011;9271;48.590;8.866;2023-03-14T01:11:33;0.60;;;0.60;;
18290;SDS011;9271;48.590;8.866;2023-03-14T01:14:01;0.70;;;0.70;;
18290;SDS011;9271;48.590;8.866;2023-03-14T01:16:29;0.60;;;0.60;;
18290;SDS011;9271;48.590;8.866;2023-03-14T01:18:57;0.40;;;0.37;;
18290;SDS011;9271;48.590;8.866;2023-03-14T01:21:25;0.60;;;0.50;;
18290;SDS011;9271;48.590;8.866;2023-03-14T01:23:53;2.33;;;1.20;;
18290;SDS011;9271;48.590;8.866;2023-03-14T01:26:22;0.80;;;0.63;;
18290;SDS011;9271;48.590;8.866;2023-03-14T01:28:52;0.50;;;0.50;;
18290;SDS011;9271;48.590;8.866;2023-03-14T01:31:19;0.60;;;0.57;;
18290;SDS011;9271;48.590;8.866;2023-03-14T01:33:46;1.13;;;0.80;;
18290;SDS011;9271;48.590;8.866;2023-03-14T01:36:13;0.50;;;0.50;;
18290;SDS011;9271;48.590;8.866;2023-03-14T01:38:40;0.70;;;0.70;;
18290;SDS011;9271;48.590;8.866;2023-03-14T01:41:07;0.70;;;0.70;;
18290;SDS011;9271;48.590;8.866;2023-03-14T01:43:37;0.60;;;0.60;;
18290;SDS011;9271;48.590;8.866;2023-03-14T01:48:52;1.27;;;0.57;;
18290;SDS011;9271;48.590;8.866;2023-03-14T01:51:33;0.67;;;0.67;;
18290;SDS011;9271;48.590;8.866;2023-03-14T01:54:06;0.43;;;0.43;;
18290;SDS011;9271;48.590;8.866;2023-03-14T01:56:36;0.60;;;0.60;;
18290;SDS011;9271;48.590;8.866;2023-03-14T01:59:05;0.70;;;0.70;;
18290;SDS011;9271;48.590;8.866;2023-03-14T02:01:35;0.60;;;0.60;;
18290;SDS011;9271;48.590;8.866;2023-03-14T02:04:02;0.70;;;0.70;;
18290;SDS011;9271;48.590;8.866;2023-03-14T02:06:34;0.53;;;0.50;;
18290;SDS011;9271;48.590;8.866;2023-03-14T02:09:07;0.60;;;0.60;;
18290;SDS011;9271;48.590;8.866;2023-03-14T02:11:34;0.47;;;0.47;;
18290;SDS011;9271;48.590;8.866;2023-03-14T02:14:00;0.50;;;0.50;;
18290;SDS011;9271;48.590;8.866;2023-03-14T02:16:28;0.83;;;0.50;;
18290;SDS011;9271;48.590;8.866;2023-03-14T02:18:57;0.57;;;0.53;;
18290;SDS011;9271;48.590;8.866;2023-03-14T02:21:26;0.50;;;0.50;;
18290;SDS011;9271;48.590;8.866;2023-03-14T02:24:06;0.60;;;0.60;;
18290;SDS011;9271;48.590;8.866;2023-03-14T02:26:41;0.60;;;0.60;;
18290;SDS011;9271;48.590;8.866;2023-03-14T02:29:12;1.43;;;0.90;;
18290;SDS011;9271;48.590;8.866;2023-03-14T02:31:39;0.70;;;0.70;;
18290;SDS011;9271;48.590;8.866;2023-03-14T02:34:06;1.13;;;0.80;;
18290;SDS011;9271;48.590;8.866;2023-03-14T02:36:33;0.77;;;0.60;;
18290;SDS011;9271;48.590;8.866;2023-03-14T02:39:01;0.83;;;0.73;;
18290;SDS011;9271;48.590;8.866;2023-03-14T02:41:33;0.70;;;0.60;;
18290;SDS011;9271;48.590;8.866;2023-03-14T02:44:00;1.80;;;0.70;;
18290;SDS011;9271;48.590;8.866;2023-03-14T02:46:28;0.77;;;0.60;;
18290;SDS011;9271;48.590;8.866;2023-03-14T02:48:56;2.20;;;0.60;;
18290;SDS011;9271;48.590;8.866;2023-03-14T02:51:26;0.70;;;0.70;;
18290;SDS011;9271;48.590;8.866;2023-03-14T02:53:54;1.83;;;0.73;;
18290;SDS011;9271;48.590;8.866;2023-03-14T02:56:21;0.83;;;0.77;;
18290;SDS011;9271;48.590;8.866;2023-03-14T02:58:48;2.93;;;0.50;;
18290;SDS011;9271;48.590;8.866;2023-03-14T03:01:14;0.60;;;0.60;;
18290;SDS011;9271;48.590;8.866;2023-03-14T03:03:42;0.73;;;0.60;;
18290;SDS011;9271;48.590;8.866;2023-03-14T03:06:09;2.87;;;1.10;;
18290;SDS011;9271;48.590;8.866;2023-03-14T03:08:36;1.67;;;1.07;;
18290;SDS011;9271;48.590;8.866;2023-03-14T03:11:03;1.30;;;0.70;;
18290;SDS011;9271;48.590;8.866;2023-03-14T03:13:30;1.50;;;0.70;;
18290;SDS011;9271;48.590;8.866;2023-03-14T03:15:57;0.90;;;0.73;;
18290;SDS011;9271;48.590;8.866;2023-03-14T03:18:23;1.30;;;1.00;;
18290;SDS011;9271;48.590;8.866;2023-03-14T03:20:51;2.20;;;1.30;;
18290;SDS011;9271;48.590;8.866;2023-03-14T03:23:18;2.83;;;0.83;;
18290;SDS011;9271;48.590;8.866;2023-03-14T03:25:48;2.83;;;1.20;;
18290;SDS011;9271;48.590;8.866;2023-03-14T03:28:16;2.53;;;0.80;;
18290;SDS011;9271;48.590;8.866;2023-03-14T03:30:43;2.77;;;0.97;;
18290;SDS011;9271;48.590;8.866;2023-03-14T03:33:10;1.03;;;0.70;;
18290;SDS011;9271;48.590;8.866;2023-03-14T03:35:41;1.07;;;0.87;;
18290;SDS011;9271;48.590;8.866;2023-03-14T03:38:10;1.67;;;1.00;;
18290;SDS011;9271;48.590;8.866;2023-03-14T03:40:37;3.00;;;1.03;;
18290;SDS011;9271;48.590;8.866;2023-03-14T03:43:04;3.87;;;1.17;;
18290;SDS011;9271;48.590;8.866;2023-03-14T03:45:31;2.33;;;1.37;;
18290;SDS011;9271;48.590;8.866;2023-03-14T03:47:57;1.87;;;0.90;;
18290;SDS011;9271;48.590;8.866;2023-03-14T03:50:24;2.33;;;1.00;;
18290;SDS011;9271;48.590;8.866;2023-03-14T03:52:51;2.93;;;0.67;;
18290;SDS011;9271;48.590;8.866;2023-03-14T03:55:19;2.33;;;1.00;;
18290;SDS011;9271;48.590;8.866;2023-03-14T03:57:46;3.73;;;1.00;;
18290;SDS011;9271;48.590;8.866;2023-03-14T04:00:12;3.97;;;0.90;;
18290;SDS011;9271;48.590;8.866;2023-03-14T04:02:39;5.10;;;0.97;;
18290;SDS011;9271;48.590;8.866;2023-03-14T04:05:07;1.20;;;0.87;;
18290;SDS011;9271;48.590;8.866;2023-03-14T04:07:34;1.23;;;0.97;;
18290;SDS011;9271;48.590;8.866;2023-03-14T04:10:01;3.07;;;0.87;;
18290;SDS011;9271;48.590;8.866;2023-03-14T04:12:29;1.43;;;0.87;;
18290;SDS011;9271;48.590;8.866;2023-03-14T04:14:55;2.93;;;1.03;;
18290;SDS011;9271;48.590;8.866;2023-03-14T04:17:22;3.00;;;1.00;;
18290;SDS011;9271;48.590;8.866;2023-03-14T04:19:49;2.67;;;1.07;;
18290;SDS011;9271;48.590;8.866;2023-03-14T04:22:18;2.13;;;0.90;;
18290;SDS011;9271;48.590;8.866;2023-03-14T04:24:44;1.97;;;0.80;;
18290;SDS011;9271;48.590;8.866;2023-03-14T04:27:11;3.23;;;1.20;;
18290;SDS011;9271;48.590;8.866;2023-03-14T04:29:40;1.40;;;0.90;;
18290;SDS011;9271;48.590;8.866;2023-03-14T04:32:07;5.17;;;0.77;;
18290;SDS011;9271;48.590;8.866;2023-03-14T04:34:34;3.53;;;1.10;;
18290;SDS011;9271;48.590;8.866;2023-03-14T04:37:01;1.30;;;0.90;;
18290;SDS011;9271;48.590;8.866;2023-03-14T04:39:28;1.67;;;0.87;;
18290;SDS011;9271;48.590;8.866;2023-03-14T04:41:54;3.50;;;0.97;;
18290;SDS011;9271;48.590;8.866;2023-03-14T04:44:22;2.90;;;1.07;;
18290;SDS011;9271;48.590;8.866;2023-03-14T04:46:50;2.17;;;0.87;;
18290;SDS011;9271;48.590;8.866;2023-03-14T04:49:16;3.30;;;0.77;;
18290;SDS011;9271;48.590;8.866;2023-03-14T04:51:43;1.80;;;1.07;;
18290;SDS011;9271;48.590;8.866;2023-03-14T04:54:10;3.07;;;1.20;;
18290;SDS011;9271;48.590;8.866;2023-03-14T04:56:36;3.60;;;0.93;;
18290;SDS011;9271;48.590;8.866;2023-03-14T04:59:03;4.03;;;0.97;;
18290;SDS011;9271;48.590;8.866;2023-03-14T05:01:30;2.73;;;1.30;;
18290;SDS011;9271;48.590;8.866;2023-03-14T05:03:58;2.93;;;1.20;;
18290;SDS011;9271;48.590;8.866;2023-03-14T05:06:25;1.97;;;0.80;;
18290;SDS011;9271;48.590;8.866;2023-03-14T05:08:51;2.33;;;1.00;;
18290;SDS011;9271;48.590;8.866;2023-03-14T05:11:18;3.40;;;0.97;;
18290;SDS011;9271;48.590;8.866;2023-03-14T05:13:44;2.97;;;0.93;;
18290;SDS011;9271;48.590;8.866;2023-03-14T05:16:11;2.57;;;0.90;;
18290;SDS011;9271;48.590;8.866;2023-03-14T05:18:38;2.03;;;0.80;;
18290;SDS011;9271;48.590;8.866;2023-03-14T05:21:06;1.40;;;0.60;;
18290;SDS011;9271;48.590;8.866;2023-03-14T05:23:33;1.60;;;0.93;;
18290;SDS011;9271;48.590;8.866;2023-03-14T05:25:59;2.17;;;0.83;;
18290;SDS011;9271;48.590;8.866;2023-03-14T05:28:26;2.53;;;0.87;;
18290;SDS011;9271;48.590;8.866;2023-03-14T05:30:53;2.43;;;0.97;;
18290;SDS011;9271;48.590;8.866;2023-03-14T05:33:20;2.27;;;0.70;;
18290;SDS011;9271;48.590;8.866;2023-03-14T05:35:46;4.10;;;1.03;;
18290;SDS011;9271;48.590;8.866;2023-03-14T05:38:14;2.07;;;0.90;;
18290;SDS011;9271;48.590;8.866;2023-03-14T05:40:41;0.87;;;0.70;;
18290;SDS011;9271;48.590;8.866;2023-03-14T05:43:07;1.53;;;1.07;;
18290;SDS011;9271;48.590;8.866;2023-03-14T05:45:34;1.30;;;1.10;;
18290;SDS011;9271;48.590;8.866;2023-03-14T05:48:01;1.00;;;0.73;;
18290;SDS011;9271;48.590;8.866;2023-03-14T05:50:27;1.27;;;1.00;;
18290;SDS011;9271;48.590;8.866;2023-03-14T05:52:54;2.17;;;0.90;;
18290;SDS011;9271;48.590;8.866;2023-03-14T05:55:22;2.60;;;0.90;;
18290;SDS011;9271;48.590;8.866;2023-03-14T05:57:49;3.23;;;1.50;;
18290;SDS011;9271;48.590;8.866;2023-03-14T06:00:16;2.43;;;1.23;;
18290;SDS011;9271;48.590;8.866;2023-03-14T06:02:43;2.13;;;1.40;;
18290;SDS011;9271;48.590;8.866;2023-03-14T06:05:10;1.03;;;1.00;;
18290;SDS011;9271;48.590;8.866;2023-03-14T06:07:36;1.77;;;1.30;;
18290;SDS011;9271;48.590;8.866;2023-03-14T06:10:03;2.13;;;0.90;;
18290;SDS011;9271;48.590;8.866;2023-03-14T06:12:32;1.00;;;0.90;;
18290;SDS011;9271;48.590;8.866;2023-03-14T06:14:59;2.17;;;1.03;;
18290;SDS011;9271;48.590;8.866;2023-03-14T06:17:25;1.37;;;0.90;;
18290;SDS011;9271;48.590;8.866;2023-03-14T06:19:52;2.70;;;0.80;;
18290;SDS011;9271;48.590;8.866;2023-03-14T06:22:18;2.23;;;0.97;;
18290;SDS011;9271;48.590;8.866;2023-03-14T06:24:45;1.60;;;0.70;;
18290;SDS011;9271;48.590;8.866;2023-03-14T06:27:12;0.90;;;0.77;;
18290;SDS011;9271;48.590;8.866;2023-03-14T06:29:40;1.80;;;1.17;;
18290;SDS011;9271;48.590;8.866;2023-03-14T06:32:06;2.13;;;1.67;;
18290;SDS011;9271;48.590;8.866;2023-03-14T06:34:33;1.70;;;0.73;;
18290;SDS011;9271;48.590;8.866;2023-03-14T06:37:00;0.90;;;0.87;;
18290;SDS011;9271;48.590;8.866;2023-03-14T06:39:27;0.80;;;0.80;;
18290;SDS011;9271;48.590;8.866;2023-03-14T06:41:54;2.47;;;0.83;;
18290;SDS011;9271;48.590;8.866;2023-03-14T06:44:20;1.67;;;0.90;;
18290;SDS011;9271;48.590;8.866;2023-03-14T06:46:48;2.00;;;1.13;;
18290;SDS011;9271;48.590;8.866;2023-03-14T06:49:15;1.43;;;1.10;;
18290;SDS011;9271;48.590;8.866;2023-03-14T06:51:41;2.20;;;0.80;;
18290;SDS011;9271;48.590;8.866;2023-03-14T06:54:08;0.80;;;0.73;;
18290;SDS011;9271;48.590;8.866;2023-03-14T06:56:35;1.37;;;0.83;;
18290;SDS011;9271;48.590;8.866;2023-03-14T06:59:01;0.97;;;0.70;;
18290;SDS011;9271;48.590;8.866;2023-03-14T07:01:29;1.70;;;1.00;;
18290;SDS011;9271;48.590;8.866;2023-03-14T07:03:58;1.40;;;1.30;;
18290;SDS011;9271;48.590;8.866;2023-03-14T07:06:26;1.30;;;1.20;;
18290;SDS011;9271;48.590;8.866;2023-03-14T07:08:54;1.20;;;1.10;;
18290;SDS011;9271;48.590;8.866;2023-03-14T07:11:21;1.17;;;0.70;;
18290;SDS011;9271;48.590;8.866;2023-03-14T07:13:49;1.70;;;1.07;;
18290;SDS011;9271;48.590;8.866;2023-03-14T07:16:16;2.60;;;1.00;;
18290;SDS011;9271;48.590;8.866;2023-03-14T07:18:42;1.30;;;0.67;;
18290;SDS011;9271;48.590;8.866;2023-03-14T07:21:11;0.70;;;0.70;;
18290;SDS011;9271;48.590;8.866;2023-03-14T07:23:38;2.10;;;0.70;;
18290;SDS011;9271;48.590;8.866;2023-03-14T07:26:05;0.87;;;0.87;;
18290;SDS011;9271;48.590;8.866;2023-03-14T07:28:32;1.23;;;1.03;;
18290;SDS011;9271;48.590;8.866;2023-03-14T07:30:58;1.27;;;0.90;;
18290;SDS011;9271;48.590;8.866;2023-03-14T07:33:25;1.30;;;0.60;;
18290;SDS011;9271;48.590;8.866;2023-03-14T07:35:52;0.73;;;0.50;;
18290;SDS011;9271;48.590;8.866;2023-03-14T07:38:20;1.20;;;0.70;;
18290;SDS011;9271;48.590;8.866;2023-03-14T07:40:46;1.87;;;0.57;;
18290;SDS011;9271;48.590;8.866;2023-03-14T07:43:13;1.80;;;0.70;;
18290;SDS011;9271;48.590;8.866;2023-03-14T07:45:40;0.60;;;0.60;;
18290;SDS011;9271;48.590;8.866;2023-03-14T07:48:06;1.77;;;0.63;;
18290;SDS011;9271;48.590;8.866;2023-03-14T07:50:33;1.53;;;0.67;;
18290;SDS011;9271;48.590;8.866;2023-03-14T07:52:59;1.80;;;0.70;;
18290;SDS011;9271;48.590;8.866;2023-03-14T07:55:27;1.67;;;0.60;;
18290;SDS011;9271;48.590;8.866;2023-03-14T07:57:54;2.47;;;0.80;;
18290;SDS011;9271;48.590;8.866;2023-03-14T08:00:21;1.70;;;0.60;;
18290;SDS011;9271;48.590;8.866;2023-03-14T08:02:47;0.60;;;0.60;;
18290;SDS011;9271;48.590;8.866;2023-03-14T08:05:14;0.60;;;0.60;;
18290;SDS011;9271;48.590;8.866;2023-03-14T08:07:41;0.80;;;0.60;;
18290;SDS011;9271;48.590;8.866;2023-03-14T08:10:08;2.50;;;0.70;;
18290;SDS011;9271;48.590;8.866;2023-03-14T08:12:37;0.93;;;0.73;;
18290;SDS011;9271;48.590;8.866;2023-03-14T08:15:04;1.07;;;0.60;;
18290;SDS011;9271;48.590;8.866;2023-03-14T08:17:31;0.63;;;0.50;;
18290;SDS011;9271;48.590;8.866;2023-03-14T08:19:58;1.17;;;0.80;;
18290;SDS011;9271;48.590;8.866;2023-03-14T08:22:24;0.50;;;0.50;;
18290;SDS011;9271;48.590;8.866;2023-03-14T08:24:51;1.53;;;0.50;;
18290;SDS011;9271;48.590;8.866;2023-03-14T08:27:18;1.30;;;0.70;;
18290;SDS011;9271;48.590;8.866;2023-03-14T08:29:46;0.50;;;0.50;;
18290;SDS011;9271;48.590;8.866;2023-03-14T08:32:12;1.63;;;0.57;;
18290;SDS011;9271;48.590;8.866;2023-03-14T08:34:39;0.93;;;0.50;;
18290;SDS011;9271;48.590;8.866;2023-03-14T08:37:05;1.57;;;0.87;;
18290;SDS011;9271;48.590;8.866;2023-03-14T08:39:32;2.43;;;0.70;;
18290;SDS011;9271;48.590;8.866;2023-03-14T08:41:59;1.47;;;0.60;;
18290;SDS011;9271;48.590;8.866;2023-03-14T08:44:25;0.53;;;0.53;;
18290;SDS011;9271;48.590;8.866;2023-03-14T08:46:53;0.60;;;0.60;;
18290;SDS011;9271;48.590;8.866;2023-03-14T08:49:20;0.90;;;0.60;;
18290;SDS011;9271;48.590;8.866;2023-03-14T08:51:47;1.30;;;0.60;;
18290;SDS011;9271;48.590;8.866;2023-03-14T08:54:13;1.40;;;0.80;;
18290;SDS011;9271;48.590;8.866;2023-03-14T08:56:40;0.33;;;0.33;;
18290;SDS011;9271;48.590;8.866;2023-03-14T08:59:07;0.60;;;0.47;;
18290;SDS011;9271;48.590;8.866;2023-03-14T09:01:35;0.93;;;0.57;;
18290;SDS011;9271;48.590;8.866;2023-03-14T09:04:04;1.93;;;0.77;;
18290;SDS011;9271;48.590;8.866;2023-03-14T09:06:31;0.83;;;0.47;;
18290;SDS011;9271;48.590;8.866;2023-03-14T09:08:58;0.83;;;0.40;;
18290;SDS011;9271;48.590;8.866;2023-03-14T09:11:24;1.23;;;0.60;;
18290;SDS011;9271;48.590;8.866;2023-03-14T09:13:51;2.83;;;0.47;;
18290;SDS011;9271;48.590;8.866;2023-03-14T09:16:17;0.60;;;0.60;;
18290;SDS011;9271;48.590;8.866;2023-03-14T09:18:44;0.60;;;0.60;;
18290;SDS011;9271;48.590;8.866;2023-03-14T09:21:12;1.70;;;0.50;;
18290;SDS011;9271;48.590;8.866;2023-03-14T09:23:39;3.03;;;1.00;;
18290;SDS011;9271;48.590;8.866;2023-03-14T09:26:06;1.50;;;1.30;;
18290;SDS011;9271;48.590;8.866;2023-03-14T09:28:33;2.53;;;0.60;;
18290;SDS011;9271;48.590;8.866;2023-03-14T09:31:04;0.40;;;0.40;;
18290;SDS011;9271;48.590;8.866;2023-03-14T09:33:32;0.80;;;0.70;;
18290;SDS011;9271;48.590;8.866;2023-03-14T09:35:59;1.57;;;0.97;;
18290;SDS011;9271;48.590;8.866;2023-03-14T09:38:27;1.30;;;1.00;;
18290;SDS011;9271;48.590;8.866;2023-03-14T09:40:54;1.20;;;0.87;;
18290;SDS011;9271;48.590;8.866;2023-03-14T09:43:23;0.90;;;0.90;;
18290;SDS011;9271;48.590;8.866;2023-03-14T09:45:52;3.10;;;0.53;;
18290;SDS011;9271;48.590;8.866;2023-03-14T09:48:19;0.77;;;0.70;;
18290;SDS011;9271;48.590;8.866;2023-03-14T09:50:48;0.93;;;0.60;;
18290;SDS011;9271;48.590;8.866;2023-03-14T09:53:18;0.50;;;0.50;;
18290;SDS011;9271;48.590;8.866;2023-03-14T09:55:48;5.27;;;3.27;;
18290;SDS011;9271;48.590;8.866;2023-03-14T09:58:17;1.10;;;0.77;;
18290;SDS011;9271;48.590;8.866;2023-03-14T10:00:47;0.87;;;0.57;;
18290;SDS011;9271;48.590;8.866;2023-03-14T10:03:22;1.30;;;1.13;;
18290;SDS011;9271;48.590;8.866;2023-03-14T10:05:51;0.50;;;0.50;;
18290;SDS011;9271;48.590;8.866;2023-03-14T10:08:18;1.00;;;0.50;;
18290;SDS011;9271;48.590;8.866;2023-03-14T10:10:45;1.13;;;0.50;;
18290;SDS011;9271;48.590;8.866;2023-03-14T10:13:16;0.50;;;0.47;;
18290;SDS011;9271;48.590;8.866;2023-03-14T10:15:46;2.77;;;0.60;;
18290;SDS011;9271;48.590;8.866;2023-03-14T10:18:15;0.63;;;0.63;;
18290;SDS011;9271;48.590;8.866;2023-03-14T10:20:42;2.63;;;0.70;;
18290;SDS011;9271;48.590;8.866;2023-03-14T10:23:22;0.67;;;0.53;;
18290;SDS011;9271;48.590;8.866;2023-03-14T10:26:00;0.33;;;0.33;;
18290;SDS011;9271;48.590;8.866;2023-03-14T10:28:33;3.67;;;0.60;;
18290;SDS011;9271;48.590;8.866;2023-03-14T10:31:03;0.57;;;0.50;;
18290;SDS011;9271;48.590;8.866;2023-03-14T10:33:31;0.40;;;0.40;;
18290;SDS011;9271;48.590;8.866;2023-03-14T10:35:59;1.10;;;0.70;;
18290;SDS011;9271;48.590;8.866;2023-03-14T10:38:28;1.43;;;0.53;;
18290;SDS011;9271;48.590;8.866;2023-03-14T10:40:55;1.17;;;0.50;;
18290;SDS011;9271;48.590;8.866;2023-03-14T10:43:24;1.43;;;0.50;;
18290;SDS011;9271;48.590;8.866;2023-03-14T10:45:55;0.50;;;0.50;;
18290;SDS011;9271;48.590;8.866;2023-03-14T10:48:24;3.00;;;0.90;;
18290;SDS011;9271;48.590;8.866;2023-03-14T10:50:57;0.60;;;0.60;;
18290;SDS011;9271;48.590;8.866;2023-03-14T10:53:32;0.43;;;0.43;;
18290;SDS011;9271;48.590;8.866;2023-03-14T10:56:04;0.97;;;0.90;;
18290;SDS011;9271;48.590;8.866;2023-03-14T10:58:33;0.40;;;0.40;;
18290;SDS011;9271;48.590;8.866;2023-03-14T11:01:09;2.83;;;1.53;;
18290;SDS011;9271;48.590;8.866;2023-03-14T11:03:53;3.10;;;1.57;;
18290;SDS011;9271;48.590;8.866;2023-03-14T11:06:24;0.80;;;0.50;;
18290;SDS011;9271;48.590;8.866;2023-03-14T11:09:02;0.50;;;0.50;;
18290;SDS011;9271;48.590;8.866;2023-03-14T11:11:36;0.50;;;0.50;;
18290;SDS011;9271;48.590;8.866;2023-03-14T11:14:09;1.23;;;0.60;;
18290;SDS011;9271;48.590;8.866;2023-03-14T11:16:48;0.40;;;0.40;;
18290;SDS011;9271;48.590;8.866;2023-03-14T11:19:26;1.03;;;1.03;;
18290;SDS011;9271;48.590;8.866;2023-03-14T11:22:20;0.83;;;0.83;;
18290;SDS011;9271;48.590;8.866;2023-03-14T11:25:02;2.13;;;1.00;;
18290;SDS011;9271;48.590;8.866;2023-03-14T11:27:42;0.50;;;0.50;;
18290;SDS011;9271;48.590;8.866;2023-03-14T11:30:18;0.47;;;0.40;;
18290;SDS011;9271;48.590;8.866;2023-03-14T11:32:50;0.47;;;0.47;;
18290;SDS011;9271;48.590;8.866;2023-03-14T11:35:26;0.30;;;0.30;;
18290;SDS011;9271;48.590;8.866;2023-03-14T11:37:58;0.60;;;0.60;;
18290;SDS011;9271;48.590;8.866;2023-03-14T11:40:35;0.43;;;0.43;;
18290;SDS011;9271;48.590;8.866;2023-03-14T11:43:06;0.40;;;0.40;;
18290;SDS011;9271;48.590;8.866;2023-03-14T11:45:39;1.00;;;0.70;;
18290;SDS011;9271;48.590;8.866;2023-03-14T11:48:13;0.70;;;0.70;;
18290;SDS011;9271;48.590;8.866;2023-03-14T11:50:46;1.33;;;0.50;;
18290;SDS011;9271;48.590;8.866;2023-03-14T11:53:17;0.50;;;0.50;;
18290;SDS011;9271;48.590;8.866;2023-03-14T11:55:48;0.50;;;0.50;;
18290;SDS011;9271;48.590;8.866;2023-03-14T11:58:17;0.73;;;0.50;;
18290;SDS011;9271;48.590;8.866;2023-03-14T12:00:47;2.10;;;0.63;;
18290;SDS011;9271;48.590;8.866;2023-03-14T12:03:19;0.40;;;0.40;;
18290;SDS011;9271;48.590;8.866;2023-03-14T12:05:58;0.50;;;0.50;;
18290;SDS011;9271;48.590;8.866;2023-03-14T12:08:33;0.30;;;0.30;;
18290;SDS011;9271;48.590;8.866;2023-03-14T12:11:08;1.13;;;0.50;;
18290;SDS011;9271;48.590;8.866;2023-03-14T12:13:39;0.47;;;0.40;;
18290;SDS011;9271;48.590;8.866;2023-03-14T12:16:07;0.30;;;0.30;;
18290;SDS011;9271;48.590;8.866;2023-03-14T12:19:14;0.33;;;0.33;;
18290;SDS011;9271;48.590;8.866;2023-03-14T12:21:56;0.43;;;0.43;;
18290;SDS011;9271;48.590;8.866;2023-03-14T12:24:27;0.30;;;0.30;;
18290;SDS011;9271;48.590;8.866;2023-03-14T12:26:56;0.53;;;0.53;;
18290;SDS011;9271;48.590;8.866;2023-03-14T12:29:24;0.67;;;0.63;;
18290;SDS011;9271;48.590;8.866;2023-03-14T12:32:06;0.40;;;0.40;;
18290;SDS011;9271;48.590;8.866;2023-03-14T12:34:35;0.63;;;0.40;;
18290;SDS011;9271;48.590;8.866;2023-03-14T12:37:10;0.83;;;0.63;;
18290;SDS011;9271;48.590;8.866;2023-03-14T12:39:45;0.43;;;0.43;;
18290;SDS011;9271;48.590;8.866;2023-03-14T12:42:21;0.50;;;0.50;;
18290;SDS011;9271;48.590;8.866;2023-03-14T12:45:13;1.60;;;0.70;;
18290;SDS011;9271;48.590;8.866;2023-03-14T12:47:49;0.93;;;0.70;;
18290;SDS011;9271;48.590;8.866;2023-03-14T12:50:35;0.60;;;0.60;;
18290;SDS011;9271;48.590;8.866;2023-03-14T12:56:11;1.10;;;0.57;;
18290;SDS011;9271;48.590;8.866;2023-03-14T12:58:47;1.60;;;0.50;;
18290;SDS011;9271;48.590;8.866;2023-03-14T13:01:28;0.60;;;0.60;;
18290;SDS011;9271;48.590;8.866;2023-03-14T13:03:55;0.87;;;0.60;;
18290;SDS011;9271;48.590;8.866;2023-03-14T13:12:25;1.60;;;0.70;;
18290;SDS011;9271;48.590;8.866;2023-03-14T13:14:57;0.73;;;0.60;;
18290;SDS011;9271;48.590;8.866;2023-03-14T13:17:26;1.30;;;0.90;;
18290;SDS011;9271;48.590;8.866;2023-03-14T13:19:55;1.27;;;0.77;;
18290;SDS011;9271;48.590;8.866;2023-03-14T13:22:27;2.77;;;0.80;;
18290;SDS011;9271;48.590;8.866;2023-03-14T13:24:59;0.70;;;0.70;;
18290;SDS011;9271;48.590;8.866;2023-03-14T13:27:29;0.50;;;0.50;;
18290;SDS011;9271;48.590;8.866;2023-03-14T13:29:57;0.57;;;0.57;;
18290;SDS011;9271;48.590;8.866;2023-03-14T13:32:26;1.27;;;0.77;;
18290;SDS011;9271;48.590;8.866;2023-03-14T13:34:55;1.60;;;0.97;;
18290;SDS011;9271;48.590;8.866;2023-03-14T13:37:22;2.17;;;0.80;;
18290;SDS011;9271;48.590;8.866;2023-03-14T13:39:52;2.60;;;0.83;;
18290;SDS011;9271;48.590;8.866;2023-03-14T13:42:21;1.97;;;0.70;;
18290;SDS011;9271;48.590;8.866;2023-03-14T13:44:52;1.03;;;0.70;;
18290;SDS011;9271;48.590;8.866;2023-03-14T13:47:21;1.00;;;0.47;;
18290;SDS011;9271;48.590;8.866;2023-03-14T13:49:50;1.30;;;0.83;;
18290;SDS011;9271;48.590;8.866;2023-03-14T13:52:24;2.13;;;0.90;;
18290;SDS011;9271;48.590;8.866;2023-03-14T13:54:56;0.97;;;0.70;;
18290;SDS011;9271;48.590;8.866;2023-03-14T13:57:25;1.97;;;0.70;;
18290;SDS011;9271;48.590;8.866;2023-03-14T13:59:58;1.23;;;0.70;;
18290;SDS011;9271;48.590;8.866;2023-03-14T14:02:30;1.33;;;0.80;;
18290;SDS011;9271;48.590;8.866;2023-03-14T14:04:58;1.30;;;0.77;;
18290;SDS011;9271;48.590;8.866;2023-03-14T14:07:25;0.73;;;0.70;;
18290;SDS011;9271;48.590;8.866;2023-03-14T14:09:52;0.83;;;0.73;;
18290;SDS011;9271;48.590;8.866;2023-03-14T14:12:22;0.90;;;0.80;;
18290;SDS011;9271;48.590;8.866;2023-03-14T14:14:55;2.17;;;0.80;;
18290;SDS011;9271;48.590;8.866;2023-03-14T14:17:26;1.37;;;0.90;;
18290;SDS011;9271;48.590;8.866;2023-03-14T14:19:57;2.10;;;0.80;;
18290;SDS011;9271;48.590;8.866;2023-03-14T14:22:24;1.33;;;0.73;;
18290;SDS011;9271;48.590;8.866;2023-03-14T14:24:52;1.67;;;0.80;;
18290;SDS011;9271;48.590;8.866;2023-03-14T14:27:19;1.40;;;0.90;;
18290;SDS011;9271;48.590;8.866;2023-03-14T14:29:56;1.83;;;0.80;;
18290;SDS011;9271;48.590;8.866;2023-03-14T14:32:24;1.77;;;0.80;;
18290;SDS011;9271;48.590;8.866;2023-03-14T14:34:56;1.20;;;0.80;;
18290;SDS011;9271;48.590;8.866;2023-03-14T14:37:24;0.90;;;0.57;;
18290;SDS011;9271;48.590;8.866;2023-03-14T14:39:54;0.83;;;0.80;;
18290;SDS011;9271;48.590;8.866;2023-03-14T14:42:26;1.87;;;0.70;;
18290;SDS011;9271;48.590;8.866;2023-03-14T14:44:55;2.00;;;0.80;;
18290;SDS011;9271;48.590;8.866;2023-03-14T14:47:24;1.30;;;0.90;;
18290;SDS011;9271;48.590;8.866;2023-03-14T14:49:53;1.47;;;0.83;;
18290;SDS011;9271;48.590;8.866;2023-03-14T14:52:22;1.10;;;0.80;;
18290;SDS011;9271;48.590;8.866;2023-03-14T14:54:59;1.50;;;0.80;;
18290;SDS011;9271;48.590;8.866;2023-03-14T14:57:30;0.90;;;0.80;;
18290;SDS011;9271;48.590;8.866;2023-03-14T15:00:02;1.93;;;0.80;;
18290;SDS011;9271;48.590;8.866;2023-03-14T15:02:34;2.80;;;0.83;;
18290;SDS011;9271;48.590;8.866;2023-03-14T15:05:05;0.93;;;0.90;;
18290;SDS011;9271;48.590;8.866;2023-03-14T15:07:37;1.13;;;0.87;;
18290;SDS011;9271;48.590;8.866;2023-03-14T15:10:04;2.33;;;1.10;;
18290;SDS011;9271;48.590;8.866;2023-03-14T15:12:33;1.87;;;0.90;;
18290;SDS011;9271;48.590;8.866;2023-03-14T15:15:00;1.30;;;0.90;;
18290;SDS011;9271;48.590;8.866;2023-03-14T15:17:26;1.70;;;0.93;;
18290;SDS011;9271;48.590;8.866;2023-03-14T15:19:53;1.00;;;0.90;;
18290;SDS011;9271;48.590;8.866;2023-03-14T15:22:22;3.07;;;0.97;;